createdAt,value
2022-11-22T00:04:03.023Z,20.50
2022-11-22T00:09:23.066Z,20.50
2022-11-22T00:14:43.381Z,20.50
2022-11-22T00:20:03.540Z,20.50
2022-11-22T00:25:24.379Z,20.50
2022-11-22T00:30:44.628Z,20.50
2022-11-22T00:36:04.751Z,20.50
2022-11-22T00:41:25.036Z,20.50
2022-11-22T00:46:45.134Z,20.50
2022-11-22T00:52:05.291Z,20.50
2022-11-22T00:57:25.282Z,20.50
2022-11-22T01:02:45.431Z,20.50
2022-11-22T01:08:05.408Z,20.50
2022-11-22T01:13:25.629Z,20.50
2022-11-22T01:18:46.294Z,20.50
2022-11-22T01:24:06.584Z,20.50
2022-11-22T01:29:26.788Z,20.50
2022-11-22T01:34:47.079Z,20.50
2022-11-22T01:40:07.032Z,20.50
2022-11-22T01:45:27.098Z,20.50
2022-11-22T01:50:47.319Z,20.50
2022-11-22T01:56:07.546Z,20.50
2022-11-22T02:01:27.878Z,20.50
2022-11-22T02:06:48.030Z,20.50
2022-11-22T02:12:08.102Z,20.50
2022-11-22T02:17:28.206Z,20.50
2022-11-22T02:22:48.355Z,20.50
2022-11-22T02:28:08.643Z,20.50
2022-11-22T02:33:28.727Z,20.50
2022-11-22T02:38:48.936Z,20.50
2022-11-22T02:44:09.110Z,20.50
2022-11-22T02:49:29.498Z,20.50
2022-11-22T02:54:49.926Z,20.50
2022-11-22T03:00:10.074Z,20.50
2022-11-22T03:05:30.300Z,20.50
2022-11-22T03:10:50.479Z,20.50
2022-11-22T03:16:10.746Z,20.50
2022-11-22T03:21:30.767Z,20.50
2022-11-22T03:26:51.066Z,20.50
2022-11-22T03:32:11.187Z,20.50
2022-11-22T03:37:31.389Z,20.50
2022-11-22T03:42:51.497Z,20.40
2022-11-22T03:48:11.808Z,20.50
2022-11-22T03:53:31.864Z,20.50
2022-11-22T03:58:52.503Z,20.50
2022-11-22T04:04:12.642Z,20.50
2022-11-22T04:09:33.196Z,20.50
2022-11-22T04:14:53.388Z,20.50
2022-11-22T04:20:13.471Z,20.50
2022-11-22T04:25:33.560Z,20.50
2022-11-22T04:30:53.700Z,20.50
2022-11-22T04:36:13.723Z,20.50
2022-11-22T04:41:33.798Z,20.50
2022-11-22T04:46:53.839Z,20.50
2022-11-22T04:52:14.443Z,20.50
2022-11-22T04:57:34.450Z,20.50
2022-11-22T05:02:54.745Z,20.50
2022-11-22T05:08:14.690Z,20.50
2022-11-22T05:13:34.956Z,20.50
2022-11-22T05:18:55.229Z,20.50
2022-11-22T05:24:15.439Z,20.50
2022-11-22T05:29:35.582Z,20.50
2022-11-22T05:34:55.635Z,20.50
2022-11-22T05:40:15.697Z,20.50
2022-11-22T05:45:35.856Z,20.50
2022-11-22T05:50:56.011Z,20.50
2022-11-22T05:56:16.120Z,20.50
2022-11-22T06:01:36.215Z,20.50
2022-11-22T06:06:56.565Z,20.50
2022-11-22T06:12:16.690Z,20.50
2022-11-22T06:17:36.850Z,20.50
2022-11-22T06:22:56.926Z,20.50
2022-11-22T06:28:17.167Z,20.50
2022-11-22T06:33:37.216Z,20.50
2022-11-22T06:38:57.484Z,20.40
2022-11-22T06:44:17.659Z,20.50
2022-11-22T06:49:37.923Z,20.50
2022-11-22T06:54:57.995Z,20.50
2022-11-22T07:00:18.306Z,20.50
2022-11-22T07:05:38.359Z,20.50
2022-11-22T07:10:58.622Z,20.50
2022-11-22T07:16:18.651Z,20.50
2022-11-22T07:21:38.791Z,20.50
2022-11-22T07:26:58.991Z,20.50
2022-11-22T07:32:19.147Z,20.50
2022-11-22T07:37:39.298Z,20.50
2022-11-22T07:42:59.435Z,20.50
2022-11-22T07:48:19.551Z,20.50
2022-11-22T07:53:39.693Z,20.50
2022-11-22T07:58:59.888Z,20.50
2022-11-22T08:04:20.083Z,20.40
2022-11-22T08:09:40.248Z,20.50
2022-11-22T08:15:00.362Z,20.50
2022-11-22T08:20:20.547Z,20.40
2022-11-22T08:25:40.689Z,20.50
2022-11-22T08:31:00.853Z,20.50
2022-11-22T08:36:20.920Z,20.40
2022-11-22T08:41:41.130Z,20.40
2022-11-22T08:47:01.339Z,20.40
2022-11-22T08:52:21.468Z,20.40
2022-11-22T08:57:41.658Z,20.40
2022-11-22T09:03:01.952Z,20.40
2022-11-22T09:13:47.211Z,20.40
2022-11-22T09:19:07.352Z,20.50
2022-11-22T09:24:27.462Z,20.40
2022-11-22T09:29:47.642Z,20.40
2022-11-22T09:35:07.850Z,20.40
2022-11-22T09:40:27.927Z,20.40
2022-11-22T09:45:47.886Z,20.40
2022-11-22T09:51:08.151Z,20.40
2022-11-22T09:56:28.183Z,20.40
2022-11-22T10:01:48.428Z,20.40
2022-11-22T10:07:08.600Z,20.40
2022-11-22T10:12:28.860Z,20.40
2022-11-22T10:17:49.090Z,20.40
2022-11-22T10:23:09.319Z,20.40
2022-11-22T10:28:29.469Z,20.40
2022-11-22T10:33:49.695Z,20.40
2022-11-22T10:39:09.656Z,20.40
2022-11-22T10:44:29.947Z,20.40
2022-11-22T10:49:50.059Z,20.40
2022-11-22T10:55:10.341Z,20.50
2022-11-22T11:00:30.474Z,20.50
2022-11-22T11:06:20.960Z,20.50
2022-11-22T11:11:30.536Z,20.50
2022-11-22T11:16:50.750Z,20.40
2022-11-22T11:22:10.804Z,20.40
2022-11-22T11:27:31.743Z,20.40
2022-11-22T11:32:51.864Z,20.40
2022-11-22T11:38:12.051Z,20.40
2022-11-22T11:43:32.039Z,20.40
2022-11-22T11:48:52.237Z,20.40
2022-11-22T11:54:12.233Z,20.50
2022-11-22T11:59:32.600Z,20.50
2022-11-22T12:04:53.059Z,20.50
2022-11-22T12:10:13.321Z,20.50
2022-11-22T12:15:33.478Z,20.40
2022-11-22T12:20:53.708Z,20.50
2022-11-22T12:26:13.675Z,20.50
2022-11-22T12:31:33.875Z,20.40
2022-11-22T12:36:53.875Z,20.50
2022-11-22T12:42:16.462Z,20.50
2022-11-22T12:47:40.235Z,20.40
2022-11-22T12:53:00.298Z,20.50
2022-11-22T12:58:20.442Z,20.50
2022-11-22T13:03:40.576Z,20.50
2022-11-22T13:09:04.021Z,20.50
2022-11-22T13:14:24.457Z,20.50
2022-11-22T13:19:46.969Z,20.40
2022-11-22T13:25:07.787Z,20.50
2022-11-22T13:30:27.911Z,20.40
2022-11-22T13:35:47.915Z,20.40
2022-11-22T13:41:08.101Z,20.40
2022-11-22T13:46:28.284Z,20.50
2022-11-22T13:51:48.471Z,20.50
2022-11-22T13:57:08.603Z,20.50
2022-11-22T14:02:28.706Z,20.50
2022-11-22T14:07:48.841Z,20.50
2022-11-22T14:13:09.102Z,20.40
2022-11-22T14:18:29.349Z,20.50
2022-11-22T14:23:49.379Z,20.50
2022-11-22T14:29:09.414Z,20.50
2022-11-22T14:34:29.743Z,20.40
2022-11-22T14:39:50.057Z,20.50
2022-11-22T14:45:10.155Z,20.50
2022-11-22T14:50:30.295Z,20.40
2022-11-22T14:55:50.738Z,20.50
2022-11-22T15:01:10.851Z,20.50
2022-11-22T15:09:22.950Z,20.50
2022-11-22T15:12:11.287Z,20.50
2022-11-22T16:02:32.475Z,20.50
2022-11-22T16:07:52.821Z,20.50
2022-11-22T16:13:12.895Z,20.50
2022-11-22T16:18:32.882Z,20.40
2022-11-22T16:23:53.178Z,20.50
2022-11-22T16:29:13.287Z,20.50
2022-11-22T16:34:33.381Z,20.50
2022-11-22T16:39:53.335Z,20.50
2022-11-22T16:45:13.477Z,20.50
2022-11-22T16:50:33.682Z,20.60
2022-11-22T16:55:53.968Z,20.70
2022-11-22T17:01:14.259Z,21.00
2022-11-22T17:06:34.383Z,21.40
2022-11-22T17:11:54.461Z,21.70
2022-11-22T17:17:14.673Z,22.00
2022-11-22T17:22:34.753Z,22.20
2022-11-22T17:27:54.938Z,22.40
2022-11-22T17:33:15.075Z,22.40
2022-11-22T17:38:35.210Z,22.50
2022-11-22T17:43:55.270Z,22.50
2022-11-22T17:49:16.367Z,22.40
2022-11-22T17:54:36.504Z,22.30
2022-11-22T17:59:56.860Z,22.20
2022-11-22T18:05:17.023Z,22.20
2022-11-22T18:10:37.141Z,22.00
2022-11-22T18:16:01.665Z,22.00
2022-11-22T18:21:23.511Z,22.10
2022-11-22T18:26:43.829Z,22.30
2022-11-22T18:32:03.679Z,22.40
2022-11-22T18:37:23.863Z,22.50
2022-11-22T18:42:44.003Z,22.50
2022-11-22T18:48:04.191Z,22.50
2022-11-22T18:53:24.318Z,22.50
2022-11-22T18:58:44.324Z,22.50
2022-11-22T19:04:04.477Z,22.40
2022-11-22T19:09:24.784Z,22.30
2022-11-22T19:14:44.898Z,22.20
2022-11-22T19:20:05.216Z,22.20
2022-11-22T19:25:25.281Z,22.00
2022-11-22T19:30:45.395Z,22.00
2022-11-22T19:36:05.553Z,21.90
2022-11-22T19:41:25.624Z,21.80
2022-11-22T19:46:45.843Z,21.80
2022-11-22T19:52:06.147Z,21.80
2022-11-22T19:57:26.191Z,21.70
2022-11-22T20:02:46.277Z,21.60
2022-11-22T20:08:06.601Z,21.60
2022-11-22T20:13:26.809Z,21.60
2022-11-22T20:18:46.817Z,21.50
2022-11-22T20:24:06.816Z,21.50
2022-11-22T20:29:27.050Z,21.50
2022-11-22T20:34:47.160Z,21.50
2022-11-22T20:40:07.324Z,21.40
2022-11-22T20:45:27.413Z,21.40
2022-11-22T20:50:47.594Z,21.40
2022-11-22T20:56:07.709Z,21.30
2022-11-22T21:01:27.935Z,21.30
2022-11-22T21:06:47.957Z,21.30
2022-11-22T21:12:08.104Z,21.30
2022-11-22T21:18:02.448Z,21.30
2022-11-22T21:23:07.943Z,21.20
2022-11-22T21:28:28.113Z,21.20
2022-11-22T21:33:48.284Z,21.20
2022-11-22T21:39:08.334Z,21.20
2022-11-22T21:44:28.883Z,21.20
2022-11-22T21:49:49.130Z,21.20
2022-11-22T21:55:09.204Z,21.10
2022-11-22T22:00:29.402Z,21.20
2022-11-22T22:05:49.535Z,21.10
2022-11-22T22:11:09.661Z,21.10
2022-11-22T22:16:29.826Z,21.10
2022-11-22T22:21:50.054Z,21.10
2022-11-22T22:27:10.256Z,21.10
2022-11-22T22:32:30.219Z,21.10
2022-11-22T22:37:50.477Z,21.10
2022-11-22T22:43:10.370Z,21.00
2022-11-22T22:48:30.565Z,21.00
2022-11-22T22:53:50.594Z,21.10
2022-11-22T22:59:10.767Z,21.00
2022-11-22T23:04:30.846Z,21.00
2022-11-22T23:09:51.007Z,21.00
2022-11-22T23:15:11.123Z,21.00
2022-11-22T23:20:31.214Z,21.00
2022-11-22T23:25:51.350Z,21.00
2022-11-22T23:31:11.552Z,21.00
2022-11-22T23:36:36.054Z,21.00
2022-11-22T23:41:59.332Z,21.00
2022-11-22T23:47:19.695Z,21.00
2022-11-22T23:52:39.822Z,21.00
2022-11-22T23:58:00.081Z,21.00
